sensor_id;sensor_type;location;lat;lon;timestamp;temperature;humidity
17423;DHT22;8829;47.932;7.810;2022-09-09T00:01:00;15.90;99.90
17423;DHT22;8829;47.932;7.810;2022-09-09T00:03:31;15.90;99.90
17423;DHT22;8829;47.932;7.810;2022-09-09T00:06:06;15.80;99.90
17423;DHT22;8829;47.932;7.810;2022-09-09T00:08:41;15.80;99.90
17423;DHT22;8829;47.932;7.810;2022-09-09T00:11:19;15.70;99.90
17423;DHT22;8829;47.932;7.810;2022-09-09T00:13:51;15.80;99.90
17423;DHT22;8829;47.932;7.810;2022-09-09T00:16:21;15.70;99.90
17423;DHT22;8829;47.932;7.810;2022-09-09T00:18:56;15.70;99.90
17423;DHT22;8829;47.932;7.810;2022-09-09T00:21:32;15.80;99.90
17423;DHT22;8829;47.932;7.810;2022-09-09T00:24:04;15.70;99.90
17423;DHT22;8829;47.932;7.810;2022-09-09T00:26:38;15.70;99.90
17423;DHT22;8829;47.932;7.810;2022-09-09T00:29:14;15.70;99.90
17423;DHT22;8829;47.932;7.810;2022-09-09T00:31:46;15.60;99.90
17423;DHT22;8829;47.932;7.810;2022-09-09T00:34:15;15.80;99.90
17423;DHT22;8829;47.932;7.810;2022-09-09T00:36:45;15.80;99.90
17423;DHT22;8829;47.932;7.810;2022-09-09T00:39:21;15.90;99.90
17423;DHT22;8829;47.932;7.810;2022-09-09T00:41:59;16.10;99.90
17423;DHT22;8829;47.932;7.810;2022-09-09T00:44:31;16.30;99.90
17423;DHT22;8829;47.932;7.810;2022-09-09T00:47:12;16.40;99.90
17423;DHT22;8829;47.932;7.810;2022-09-09T00:49:52;16.40;99.90
17423;DHT22;8829;47.932;7.810;2022-09-09T00:52:28;16.50;99.90
17423;DHT22;8829;47.932;7.810;2022-09-09T00:55:04;16.60;99.90
17423;DHT22;8829;47.932;7.810;2022-09-09T00:57:34;16.70;99.90
17423;DHT22;8829;47.932;7.810;2022-09-09T01:00:18;16.70;99.90
17423;DHT22;8829;47.932;7.810;2022-09-09T01:05:43;16.80;99.90
17423;DHT22;8829;47.932;7.810;2022-09-09T01:08:18;16.70;99.90
17423;DHT22;8829;47.932;7.810;2022-09-09T01:10:50;16.70;99.90
17423;DHT22;8829;47.932;7.810;2022-09-09T01:13:24;16.80;99.90
17423;DHT22;8829;47.932;7.810;2022-09-09T01:15:52;16.80;99.90
17423;DHT22;8829;47.932;7.810;2022-09-09T01:18:22;16.80;99.90
17423;DHT22;8829;47.932;7.810;2022-09-09T01:20:55;16.70;99.90
17423;DHT22;8829;47.932;7.810;2022-09-09T01:26:23;16.90;99.90
17423;DHT22;8829;47.932;7.810;2022-09-09T01:28:51;17.00;99.90
17423;DHT22;8829;47.932;7.810;2022-09-09T01:31:21;17.00;99.90
17423;DHT22;8829;47.932;7.810;2022-09-09T01:33:49;17.10;99.90
17423;DHT22;8829;47.932;7.810;2022-09-09T01:36:21;17.20;99.90
17423;DHT22;8829;47.932;7.810;2022-09-09T01:38:51;17.20;99.90
17423;DHT22;8829;47.932;7.810;2022-09-09T01:41:18;17.30;99.90
17423;DHT22;8829;47.932;7.810;2022-09-09T01:43:47;17.30;99.90
17423;DHT22;8829;47.932;7.810;2022-09-09T01:46:14;17.30;99.90
17423;DHT22;8829;47.932;7.810;2022-09-09T01:48:41;17.40;99.90
17423;DHT22;8829;47.932;7.810;2022-09-09T01:51:08;17.40;99.90
17423;DHT22;8829;47.932;7.810;2022-09-09T01:53:37;17.30;99.90
17423;DHT22;8829;47.932;7.810;2022-09-09T01:56:11;17.40;99.90
17423;DHT22;8829;47.932;7.810;2022-09-09T01:58:51;17.30;99.90
17423;DHT22;8829;47.932;7.810;2022-09-09T02:01:30;17.10;99.90
17423;DHT22;8829;47.932;7.810;2022-09-09T02:04:03;16.90;99.90
17423;DHT22;8829;47.932;7.810;2022-09-09T02:06:35;16.80;99.90
17423;DHT22;8829;47.932;7.810;2022-09-09T02:09:05;16.70;99.90
17423;DHT22;8829;47.932;7.810;2022-09-09T02:11:33;16.60;99.90
17423;DHT22;8829;47.932;7.810;2022-09-09T02:14:04;16.60;99.90
17423;DHT22;8829;47.932;7.810;2022-09-09T02:16:37;16.50;99.90
17423;DHT22;8829;47.932;7.810;2022-09-09T02:19:09;16.50;99.90
17423;DHT22;8829;47.932;7.810;2022-09-09T02:21:39;16.40;99.90
17423;DHT22;8829;47.932;7.810;2022-09-09T02:24:08;16.50;99.90
17423;DHT22;8829;47.932;7.810;2022-09-09T02:26:39;16.50;99.90
17423;DHT22;8829;47.932;7.810;2022-09-09T02:29:09;16.60;99.90
17423;DHT22;8829;47.932;7.810;2022-09-09T02:31:38;16.70;99.90
17423;DHT22;8829;47.932;7.810;2022-09-09T02:34:07;16.70;99.90
17423;DHT22;8829;47.932;7.810;2022-09-09T02:36:37;16.80;99.90
17423;DHT22;8829;47.932;7.810;2022-09-09T02:39:07;16.80;99.90
17423;DHT22;8829;47.932;7.810;2022-09-09T02:41:37;16.80;99.90
17423;DHT22;8829;47.932;7.810;2022-09-09T02:44:08;16.80;99.90
17423;DHT22;8829;47.932;7.810;2022-09-09T02:46:52;16.80;99.90
17423;DHT22;8829;47.932;7.810;2022-09-09T02:49:28;16.90;99.90
17423;DHT22;8829;47.932;7.810;2022-09-09T02:52:01;16.90;99.90
17423;DHT22;8829;47.932;7.810;2022-09-09T02:54:30;17.00;99.90
17423;DHT22;8829;47.932;7.810;2022-09-09T02:57:02;17.00;99.90
17423;DHT22;8829;47.932;7.810;2022-09-09T02:59:32;17.00;99.90
17423;DHT22;8829;47.932;7.810;2022-09-09T03:01:59;17.10;99.90
17423;DHT22;8829;47.932;7.810;2022-09-09T03:04:26;17.10;99.90
17423;DHT22;8829;47.932;7.810;2022-09-09T03:06:54;17.10;99.90
17423;DHT22;8829;47.932;7.810;2022-09-09T03:09:20;17.10;99.90
17423;DHT22;8829;47.932;7.810;2022-09-09T03:11:47;17.10;99.90
17423;DHT22;8829;47.932;7.810;2022-09-09T03:14:14;17.20;99.90
17423;DHT22;8829;47.932;7.810;2022-09-09T03:16:43;17.20;99.90
17423;DHT22;8829;47.932;7.810;2022-09-09T03:19:09;17.20;99.90
17423;DHT22;8829;47.932;7.810;2022-09-09T03:21:36;17.10;99.90
17423;DHT22;8829;47.932;7.810;2022-09-09T03:24:03;17.30;99.90
17423;DHT22;8829;47.932;7.810;2022-09-09T03:26:30;17.10;99.90
17423;DHT22;8829;47.932;7.810;2022-09-09T03:28:57;17.10;99.90
17423;DHT22;8829;47.932;7.810;2022-09-09T03:31:25;17.10;99.90
17423;DHT22;8829;47.932;7.810;2022-09-09T03:33:56;17.10;99.90
17423;DHT22;8829;47.932;7.810;2022-09-09T03:36:23;17.10;99.90
17423;DHT22;8829;47.932;7.810;2022-09-09T03:38:51;17.10;99.90
17423;DHT22;8829;47.932;7.810;2022-09-09T03:41:19;17.10;99.90
17423;DHT22;8829;47.932;7.810;2022-09-09T03:43:49;17.10;99.90
17423;DHT22;8829;47.932;7.810;2022-09-09T03:46:16;17.10;99.90
17423;DHT22;8829;47.932;7.810;2022-09-09T03:48:42;17.10;99.90
17423;DHT22;8829;47.932;7.810;2022-09-09T03:51:10;17.20;99.90
17423;DHT22;8829;47.932;7.810;2022-09-09T03:53:37;17.10;99.90
17423;DHT22;8829;47.932;7.810;2022-09-09T03:56:05;17.10;99.90
17423;DHT22;8829;47.932;7.810;2022-09-09T03:58:33;17.20;99.90
17423;DHT22;8829;47.932;7.810;2022-09-09T04:01:02;17.10;99.90
17423;DHT22;8829;47.932;7.810;2022-09-09T04:03:29;17.00;99.90
17423;DHT22;8829;47.932;7.810;2022-09-09T04:05:58;17.00;99.90
17423;DHT22;8829;47.932;7.810;2022-09-09T04:08:26;16.90;99.90
17423;DHT22;8829;47.932;7.810;2022-09-09T04:10:53;17.00;99.90
17423;DHT22;8829;47.932;7.810;2022-09-09T04:13:24;16.90;99.90
17423;DHT22;8829;47.932;7.810;2022-09-09T04:15:52;16.90;99.90
17423;DHT22;8829;47.932;7.810;2022-09-09T04:18:20;16.80;99.90
17423;DHT22;8829;47.932;7.810;2022-09-09T04:20:47;16.80;99.90
17423;DHT22;8829;47.932;7.810;2022-09-09T04:23:15;16.80;99.90
17423;DHT22;8829;47.932;7.810;2022-09-09T04:25:45;16.80;99.90
17423;DHT22;8829;47.932;7.810;2022-09-09T04:28:12;16.80;99.90
17423;DHT22;8829;47.932;7.810;2022-09-09T04:30:39;16.80;99.90
17423;DHT22;8829;47.932;7.810;2022-09-09T04:33:06;16.80;99.90
17423;DHT22;8829;47.932;7.810;2022-09-09T04:35:33;16.80;99.90
17423;DHT22;8829;47.932;7.810;2022-09-09T04:38:00;16.80;99.90
17423;DHT22;8829;47.932;7.810;2022-09-09T04:40:28;16.80;99.90
17423;DHT22;8829;47.932;7.810;2022-09-09T04:42:57;16.70;99.90
17423;DHT22;8829;47.932;7.810;2022-09-09T04:45:24;16.70;99.90
17423;DHT22;8829;47.932;7.810;2022-09-09T04:47:51;16.70;99.90
17423;DHT22;8829;47.932;7.810;2022-09-09T04:50:18;16.80;99.90
17423;DHT22;8829;47.932;7.810;2022-09-09T04:52:45;16.80;99.90
17423;DHT22;8829;47.932;7.810;2022-09-09T04:55:11;16.80;99.90
17423;DHT22;8829;47.932;7.810;2022-09-09T04:57:39;16.90;99.90
17423;DHT22;8829;47.932;7.810;2022-09-09T05:00:08;16.90;99.90
17423;DHT22;8829;47.932;7.810;2022-09-09T05:02:37;16.90;99.90
17423;DHT22;8829;47.932;7.810;2022-09-09T05:05:05;16.90;99.90
17423;DHT22;8829;47.932;7.810;2022-09-09T05:07:32;16.90;99.90
17423;DHT22;8829;47.932;7.810;2022-09-09T05:09:58;17.00;99.90
17423;DHT22;8829;47.932;7.810;2022-09-09T05:12:25;17.00;99.90
17423;DHT22;8829;47.932;7.810;2022-09-09T05:14:52;17.00;99.90
17423;DHT22;8829;47.932;7.810;2022-09-09T05:17:20;17.00;99.90
17423;DHT22;8829;47.932;7.810;2022-09-09T05:19:46;17.00;99.90
17423;DHT22;8829;47.932;7.810;2022-09-09T05:22:17;17.00;99.90
17423;DHT22;8829;47.932;7.810;2022-09-09T05:24:44;17.00;99.90
17423;DHT22;8829;47.932;7.810;2022-09-09T05:27:11;17.10;99.90
17423;DHT22;8829;47.932;7.810;2022-09-09T05:29:37;17.10;99.90
17423;DHT22;8829;47.932;7.810;2022-09-09T05:32:06;17.20;99.90
17423;DHT22;8829;47.932;7.810;2022-09-09T05:34:35;17.20;99.90
17423;DHT22;8829;47.932;7.810;2022-09-09T05:37:03;17.10;99.90
17423;DHT22;8829;47.932;7.810;2022-09-09T05:39:30;17.20;99.90
17423;DHT22;8829;47.932;7.810;2022-09-09T05:41:58;17.20;99.90
17423;DHT22;8829;47.932;7.810;2022-09-09T05:44:25;17.20;99.90
17423;DHT22;8829;47.932;7.810;2022-09-09T05:46:53;17.20;99.90
17423;DHT22;8829;47.932;7.810;2022-09-09T05:49:19;17.20;99.90
17423;DHT22;8829;47.932;7.810;2022-09-09T05:51:48;17.20;99.90
17423;DHT22;8829;47.932;7.810;2022-09-09T05:54:16;17.10;99.90
17423;DHT22;8829;47.932;7.810;2022-09-09T05:56:43;17.00;99.90
17423;DHT22;8829;47.932;7.810;2022-09-09T05:59:10;17.10;99.90
17423;DHT22;8829;47.932;7.810;2022-09-09T06:01:38;17.10;99.90
17423;DHT22;8829;47.932;7.810;2022-09-09T06:04:05;17.20;99.90
17423;DHT22;8829;47.932;7.810;2022-09-09T06:06:34;17.30;99.90
17423;DHT22;8829;47.932;7.810;2022-09-09T06:09:05;17.30;99.90
17423;DHT22;8829;47.932;7.810;2022-09-09T06:11:32;17.40;99.90
17423;DHT22;8829;47.932;7.810;2022-09-09T06:14:01;17.40;99.90
17423;DHT22;8829;47.932;7.810;2022-09-09T06:16:29;17.50;99.90
17423;DHT22;8829;47.932;7.810;2022-09-09T06:18:58;17.70;99.90
17423;DHT22;8829;47.932;7.810;2022-09-09T06:21:26;17.80;99.90
17423;DHT22;8829;47.932;7.810;2022-09-09T06:23:53;17.90;99.90
17423;DHT22;8829;47.932;7.810;2022-09-09T06:26:23;17.90;99.90
17423;DHT22;8829;47.932;7.810;2022-09-09T06:28:51;17.90;99.90
17423;DHT22;8829;47.932;7.810;2022-09-09T06:31:19;17.90;99.90
17423;DHT22;8829;47.932;7.810;2022-09-09T06:33:47;17.90;99.90
17423;DHT22;8829;47.932;7.810;2022-09-09T06:36:16;17.90;99.90
17423;DHT22;8829;47.932;7.810;2022-09-09T06:38:43;17.90;99.90
17423;DHT22;8829;47.932;7.810;2022-09-09T06:41:12;17.90;99.90
17423;DHT22;8829;47.932;7.810;2022-09-09T06:43:40;18.00;99.90
17423;DHT22;8829;47.932;7.810;2022-09-09T06:46:10;18.00;99.90
17423;DHT22;8829;47.932;7.810;2022-09-09T06:48:38;18.30;99.90
17423;DHT22;8829;47.932;7.810;2022-09-09T06:51:08;18.80;99.90
17423;DHT22;8829;47.932;7.810;2022-09-09T06:53:36;19.20;99.90
17423;DHT22;8829;47.932;7.810;2022-09-09T06:56:18;19.70;99.90
17423;DHT22;8829;47.932;7.810;2022-09-09T06:58:47;19.70;99.90
17423;DHT22;8829;47.932;7.810;2022-09-09T07:01:16;19.50;99.90
17423;DHT22;8829;47.932;7.810;2022-09-09T07:03:46;19.40;99.90
17423;DHT22;8829;47.932;7.810;2022-09-09T07:06:14;19.50;99.90
17423;DHT22;8829;47.932;7.810;2022-09-09T07:08:42;20.10;99.90
17423;DHT22;8829;47.932;7.810;2022-09-09T07:11:09;20.60;99.90
17423;DHT22;8829;47.932;7.810;2022-09-09T07:13:36;20.60;99.90
17423;DHT22;8829;47.932;7.810;2022-09-09T07:16:06;20.40;99.90
17423;DHT22;8829;47.932;7.810;2022-09-09T07:18:33;20.50;99.90
17423;DHT22;8829;47.932;7.810;2022-09-09T07:21:01;20.20;99.90
17423;DHT22;8829;47.932;7.810;2022-09-09T07:23:28;19.90;99.90
17423;DHT22;8829;47.932;7.810;2022-09-09T07:25:55;19.60;99.90
17423;DHT22;8829;47.932;7.810;2022-09-09T07:28:23;19.50;99.90
17423;DHT22;8829;47.932;7.810;2022-09-09T07:30:53;20.10;99.90
17423;DHT22;8829;47.932;7.810;2022-09-09T07:33:21;20.80;99.90
17423;DHT22;8829;47.932;7.810;2022-09-09T07:35:48;20.80;99.90
17423;DHT22;8829;47.932;7.810;2022-09-09T07:38:15;20.50;99.90
17423;DHT22;8829;47.932;7.810;2022-09-09T07:40:42;20.10;99.90
17423;DHT22;8829;47.932;7.810;2022-09-09T07:43:09;19.90;99.90
17423;DHT22;8829;47.932;7.810;2022-09-09T07:45:36;19.70;99.90
17423;DHT22;8829;47.932;7.810;2022-09-09T07:48:03;19.50;99.90
17423;DHT22;8829;47.932;7.810;2022-09-09T07:50:31;19.30;99.90
17423;DHT22;8829;47.932;7.810;2022-09-09T07:52:58;19.20;99.90
17423;DHT22;8829;47.932;7.810;2022-09-09T07:55:25;19.20;99.90
17423;DHT22;8829;47.932;7.810;2022-09-09T07:57:53;19.20;99.90
17423;DHT22;8829;47.932;7.810;2022-09-09T08:00:20;19.20;99.90
17423;DHT22;8829;47.932;7.810;2022-09-09T08:02:47;19.00;99.90
17423;DHT22;8829;47.932;7.810;2022-09-09T08:05:14;19.10;99.90
17423;DHT22;8829;47.932;7.810;2022-09-09T08:07:43;19.00;99.90
17423;DHT22;8829;47.932;7.810;2022-09-09T08:10:11;18.90;99.90
17423;DHT22;8829;47.932;7.810;2022-09-09T08:12:39;18.80;99.90
17423;DHT22;8829;47.932;7.810;2022-09-09T08:15:07;18.90;99.90
17423;DHT22;8829;47.932;7.810;2022-09-09T08:17:33;18.80;99.90
17423;DHT22;8829;47.932;7.810;2022-09-09T08:20:00;18.70;99.90
17423;DHT22;8829;47.932;7.810;2022-09-09T08:22:30;18.70;99.90
17423;DHT22;8829;47.932;7.810;2022-09-09T08:24:58;18.70;99.90
17423;DHT22;8829;47.932;7.810;2022-09-09T08:27:25;18.70;99.90
17423;DHT22;8829;47.932;7.810;2022-09-09T08:29:52;19.40;99.90
17423;DHT22;8829;47.932;7.810;2022-09-09T08:32:19;20.40;99.90
17423;DHT22;8829;47.932;7.810;2022-09-09T08:34:45;21.40;99.90
17423;DHT22;8829;47.932;7.810;2022-09-09T08:37:13;22.10;99.90
17423;DHT22;8829;47.932;7.810;2022-09-09T08:39:39;22.60;99.90
17423;DHT22;8829;47.932;7.810;2022-09-09T08:42:25;22.90;99.90
17423;DHT22;8829;47.932;7.810;2022-09-09T08:45:11;23.20;99.90
17423;DHT22;8829;47.932;7.810;2022-09-09T08:47:45;23.70;99.90
17423;DHT22;8829;47.932;7.810;2022-09-09T08:50:19;23.60;99.90
17423;DHT22;8829;47.932;7.810;2022-09-09T08:52:54;23.30;99.90
17423;DHT22;8829;47.932;7.810;2022-09-09T08:55:28;23.40;99.90
17423;DHT22;8829;47.932;7.810;2022-09-09T08:58:08;23.50;99.90
17423;DHT22;8829;47.932;7.810;2022-09-09T09:00:42;23.40;99.90
17423;DHT22;8829;47.932;7.810;2022-09-09T09:03:18;23.40;99.90
17423;DHT22;8829;47.932;7.810;2022-09-09T09:05:50;23.30;99.90
17423;DHT22;8829;47.932;7.810;2022-09-09T09:08:26;23.40;99.90
17423;DHT22;8829;47.932;7.810;2022-09-09T09:10:56;23.40;99.90
17423;DHT22;8829;47.932;7.810;2022-09-09T09:13:31;23.70;99.90
17423;DHT22;8829;47.932;7.810;2022-09-09T09:16:06;23.90;99.90
17423;DHT22;8829;47.932;7.810;2022-09-09T09:18:36;23.60;99.90
17423;DHT22;8829;47.932;7.810;2022-09-09T09:21:07;23.80;99.90
17423;DHT22;8829;47.932;7.810;2022-09-09T09:23:40;23.80;99.90
17423;DHT22;8829;47.932;7.810;2022-09-09T09:26:09;23.60;99.90
17423;DHT22;8829;47.932;7.810;2022-09-09T09:28:39;23.20;99.90
17423;DHT22;8829;47.932;7.810;2022-09-09T09:31:08;22.80;99.90
17423;DHT22;8829;47.932;7.810;2022-09-09T09:33:41;22.70;99.90
17423;DHT22;8829;47.932;7.810;2022-09-09T09:36:10;22.50;99.90
17423;DHT22;8829;47.932;7.810;2022-09-09T09:38:38;22.40;99.90
17423;DHT22;8829;47.932;7.810;2022-09-09T09:41:05;22.40;99.90
17423;DHT22;8829;47.932;7.810;2022-09-09T09:43:33;22.60;99.90
17423;DHT22;8829;47.932;7.810;2022-09-09T09:46:03;22.80;99.90
17423;DHT22;8829;47.932;7.810;2022-09-09T09:48:30;22.70;99.90
17423;DHT22;8829;47.932;7.810;2022-09-09T09:51:00;22.80;99.90
17423;DHT22;8829;47.932;7.810;2022-09-09T09:53:29;22.50;99.90
17423;DHT22;8829;47.932;7.810;2022-09-09T09:55:59;22.30;99.90
17423;DHT22;8829;47.932;7.810;2022-09-09T09:58:29;22.10;99.90
17423;DHT22;8829;47.932;7.810;2022-09-09T10:00:58;21.90;99.90
17423;DHT22;8829;47.932;7.810;2022-09-09T10:03:28;21.70;99.90
17423;DHT22;8829;47.932;7.810;2022-09-09T10:05:55;21.60;99.90
17423;DHT22;8829;47.932;7.810;2022-09-09T10:08:23;21.40;99.90
17423;DHT22;8829;47.932;7.810;2022-09-09T10:11:22;21.20;99.90
17423;DHT22;8829;47.932;7.810;2022-09-09T10:14:00;21.10;99.90
17423;DHT22;8829;47.932;7.810;2022-09-09T10:16:41;21.20;99.90
17423;DHT22;8829;47.932;7.810;2022-09-09T10:19:16;21.20;99.90
17423;DHT22;8829;47.932;7.810;2022-09-09T10:21:54;21.20;99.90
17423;DHT22;8829;47.932;7.810;2022-09-09T10:24:38;21.20;99.90
17423;DHT22;8829;47.932;7.810;2022-09-09T10:27:15;21.10;99.90
17423;DHT22;8829;47.932;7.810;2022-09-09T10:29:55;21.00;99.90
17423;DHT22;8829;47.932;7.810;2022-09-09T10:32:36;21.00;99.90
17423;DHT22;8829;47.932;7.810;2022-09-09T10:35:11;21.00;99.90
17423;DHT22;8829;47.932;7.810;2022-09-09T10:37:46;21.00;99.90
17423;DHT22;8829;47.932;7.810;2022-09-09T10:40:27;20.80;99.90
17423;DHT22;8829;47.932;7.810;2022-09-09T10:43:01;20.70;99.90
17423;DHT22;8829;47.932;7.810;2022-09-09T10:45:37;20.70;99.90
17423;DHT22;8829;47.932;7.810;2022-09-09T10:48:31;20.80;99.90
17423;DHT22;8829;47.932;7.810;2022-09-09T10:51:12;20.90;99.90
17423;DHT22;8829;47.932;7.810;2022-09-09T10:53:52;20.80;99.90
17423;DHT22;8829;47.932;7.810;2022-09-09T10:56:21;20.60;99.90
17423;DHT22;8829;47.932;7.810;2022-09-09T10:58:53;20.60;99.90
17423;DHT22;8829;47.932;7.810;2022-09-09T11:01:26;20.60;99.90
17423;DHT22;8829;47.932;7.810;2022-09-09T11:04:01;20.70;99.90
17423;DHT22;8829;47.932;7.810;2022-09-09T11:06:34;20.70;99.90
17423;DHT22;8829;47.932;7.810;2022-09-09T11:09:03;20.80;99.90
17423;DHT22;8829;47.932;7.810;2022-09-09T11:11:36;21.00;99.90
17423;DHT22;8829;47.932;7.810;2022-09-09T11:14:10;21.00;99.90
17423;DHT22;8829;47.932;7.810;2022-09-09T11:16:41;20.80;99.90
17423;DHT22;8829;47.932;7.810;2022-09-09T11:19:16;20.80;99.90
17423;DHT22;8829;47.932;7.810;2022-09-09T11:21:48;20.70;99.90
17423;DHT22;8829;47.932;7.810;2022-09-09T11:24:20;20.80;99.90
17423;DHT22;8829;47.932;7.810;2022-09-09T11:26:52;20.90;99.90
17423;DHT22;8829;47.932;7.810;2022-09-09T11:30:11;21.10;99.90
17423;DHT22;8829;47.932;7.810;2022-09-09T11:32:53;21.40;99.90
17423;DHT22;8829;47.932;7.810;2022-09-09T11:35:31;21.60;99.90
17423;DHT22;8829;47.932;7.810;2022-09-09T11:38:16;21.60;99.90
17423;DHT22;8829;47.932;7.810;2022-09-09T11:40:45;21.50;99.90
17423;DHT22;8829;47.932;7.810;2022-09-09T11:43:13;21.30;99.90
17423;DHT22;8829;47.932;7.810;2022-09-09T11:45:42;21.20;99.90
17423;DHT22;8829;47.932;7.810;2022-09-09T11:48:23;21.20;99.90
17423;DHT22;8829;47.932;7.810;2022-09-09T11:50:58;21.40;99.90
17423;DHT22;8829;47.932;7.810;2022-09-09T11:53:26;21.40;99.90
17423;DHT22;8829;47.932;7.810;2022-09-09T11:56:08;21.10;99.90
17423;DHT22;8829;47.932;7.810;2022-09-09T11:58:43;20.90;99.90
17423;DHT22;8829;47.932;7.810;2022-09-09T12:01:24;20.80;99.90
17423;DHT22;8829;47.932;7.810;2022-09-09T12:04:00;20.80;99.90
17423;DHT22;8829;47.932;7.810;2022-09-09T12:06:32;20.90;99.90
17423;DHT22;8829;47.932;7.810;2022-09-09T12:09:08;21.10;99.90
17423;DHT22;8829;47.932;7.810;2022-09-09T12:11:36;21.20;99.90
17423;DHT22;8829;47.932;7.810;2022-09-09T12:14:03;21.10;99.90
17423;DHT22;8829;47.932;7.810;2022-09-09T12:16:33;20.90;99.90
17423;DHT22;8829;47.932;7.810;2022-09-09T12:19:05;20.90;99.90
17423;DHT22;8829;47.932;7.810;2022-09-09T12:21:36;21.00;99.90
17423;DHT22;8829;47.932;7.810;2022-09-09T12:24:09;21.00;99.90
17423;DHT22;8829;47.932;7.810;2022-09-09T12:26:39;21.10;99.90
17423;DHT22;8829;47.932;7.810;2022-09-09T12:29:23;21.20;99.90
17423;DHT22;8829;47.932;7.810;2022-09-09T12:31:56;21.30;99.90
17423;DHT22;8829;47.932;7.810;2022-09-09T12:34:38;21.50;99.90
17423;DHT22;8829;47.932;7.810;2022-09-09T12:37:13;21.50;99.90
17423;DHT22;8829;47.932;7.810;2022-09-09T12:39:45;21.40;99.90
17423;DHT22;8829;47.932;7.810;2022-09-09T12:42:18;21.50;99.90
17423;DHT22;8829;47.932;7.810;2022-09-09T12:44:56;21.50;99.90
17423;DHT22;8829;47.932;7.810;2022-09-09T12:47:37;21.40;99.90
17423;DHT22;8829;47.932;7.810;2022-09-09T12:50:15;21.20;99.90
17423;DHT22;8829;47.932;7.810;2022-09-09T12:52:42;21.10;99.90
17423;DHT22;8829;47.932;7.810;2022-09-09T12:55:18;21.10;99.90
17423;DHT22;8829;47.932;7.810;2022-09-09T12:57:48;21.10;99.90
17423;DHT22;8829;47.932;7.810;2022-09-09T13:00:20;21.10;99.90
17423;DHT22;8829;47.932;7.810;2022-09-09T13:02:50;21.20;99.90
17423;DHT22;8829;47.932;7.810;2022-09-09T13:05:20;21.20;99.90
17423;DHT22;8829;47.932;7.810;2022-09-09T13:07:47;21.30;99.90
17423;DHT22;8829;47.932;7.810;2022-09-09T13:10:19;21.10;99.90
17423;DHT22;8829;47.932;7.810;2022-09-09T13:12:47;21.10;99.90
17423;DHT22;8829;47.932;7.810;2022-09-09T13:15:19;20.90;99.90
17423;DHT22;8829;47.932;7.810;2022-09-09T13:17:55;20.70;99.90
17423;DHT22;8829;47.932;7.810;2022-09-09T13:20:23;20.20;99.90
17423;DHT22;8829;47.932;7.810;2022-09-09T13:22:52;19.70;99.90
17423;DHT22;8829;47.932;7.810;2022-09-09T13:25:23;19.30;99.90
17423;DHT22;8829;47.932;7.810;2022-09-09T13:27:53;19.20;99.90
17423;DHT22;8829;47.932;7.810;2022-09-09T13:30:22;19.10;99.90
17423;DHT22;8829;47.932;7.810;2022-09-09T13:33:04;19.00;99.90
17423;DHT22;8829;47.932;7.810;2022-09-09T13:35:31;19.00;99.90
17423;DHT22;8829;47.932;7.810;2022-09-09T13:37:58;19.00;99.90
17423;DHT22;8829;47.932;7.810;2022-09-09T13:40:26;19.10;99.90
17423;DHT22;8829;47.932;7.810;2022-09-09T13:42:56;19.60;99.90
17423;DHT22;8829;47.932;7.810;2022-09-09T13:45:25;19.60;99.90
17423;DHT22;8829;47.932;7.810;2022-09-09T13:47:53;19.70;99.90
17423;DHT22;8829;47.932;7.810;2022-09-09T13:50:22;19.80;99.90
17423;DHT22;8829;47.932;7.810;2022-09-09T13:52:49;19.90;99.90
17423;DHT22;8829;47.932;7.810;2022-09-09T13:55:19;19.80;99.90
17423;DHT22;8829;47.932;7.810;2022-09-09T13:57:55;19.80;99.90
17423;DHT22;8829;47.932;7.810;2022-09-09T14:00:23;19.90;99.90
17423;DHT22;8829;47.932;7.810;2022-09-09T14:02:51;20.00;99.90
17423;DHT22;8829;47.932;7.810;2022-09-09T14:05:18;20.00;99.90
17423;DHT22;8829;47.932;7.810;2022-09-09T14:07:45;20.00;99.90
17423;DHT22;8829;47.932;7.810;2022-09-09T14:10:12;19.90;99.90
17423;DHT22;8829;47.932;7.810;2022-09-09T14:12:39;19.90;99.90
17423;DHT22;8829;47.932;7.810;2022-09-09T14:15:10;19.90;99.90
17423;DHT22;8829;47.932;7.810;2022-09-09T14:17:37;20.00;99.90
17423;DHT22;8829;47.932;7.810;2022-09-09T14:20:05;20.00;99.90
17423;DHT22;8829;47.932;7.810;2022-09-09T14:22:33;19.90;99.90
17423;DHT22;8829;47.932;7.810;2022-09-09T14:25:00;19.90;99.90
17423;DHT22;8829;47.932;7.810;2022-09-09T14:27:27;19.90;99.90
17423;DHT22;8829;47.932;7.810;2022-09-09T14:29:54;19.90;99.90
17423;DHT22;8829;47.932;7.810;2022-09-09T14:32:22;19.80;99.90
17423;DHT22;8829;47.932;7.810;2022-09-09T14:34:49;19.90;99.90
17423;DHT22;8829;47.932;7.810;2022-09-09T14:37:16;19.90;99.90
17423;DHT22;8829;47.932;7.810;2022-09-09T14:39:43;20.10;99.90
17423;DHT22;8829;47.932;7.810;2022-09-09T14:42:12;20.30;99.90
17423;DHT22;8829;47.932;7.810;2022-09-09T14:44:39;20.50;99.90
17423;DHT22;8829;47.932;7.810;2022-09-09T14:47:06;20.60;99.90
17423;DHT22;8829;47.932;7.810;2022-09-09T14:49:35;20.70;99.90
17423;DHT22;8829;47.932;7.810;2022-09-09T14:52:02;20.80;99.90
17423;DHT22;8829;47.932;7.810;2022-09-09T14:54:29;20.80;99.90
17423;DHT22;8829;47.932;7.810;2022-09-09T14:56:55;20.90;99.90
17423;DHT22;8829;47.932;7.810;2022-09-09T14:59:23;20.90;99.90
17423;DHT22;8829;47.932;7.810;2022-09-09T15:01:50;20.90;99.90
17423;DHT22;8829;47.932;7.810;2022-09-09T15:04:16;20.70;99.90
17423;DHT22;8829;47.932;7.810;2022-09-09T15:06:45;20.50;99.90
17423;DHT22;8829;47.932;7.810;2022-09-09T15:09:14;20.30;99.90
17423;DHT22;8829;47.932;7.810;2022-09-09T15:11:41;20.20;99.90
17423;DHT22;8829;47.932;7.810;2022-09-09T15:14:09;20.20;99.90
17423;DHT22;8829;47.932;7.810;2022-09-09T15:16:38;20.20;99.90
17423;DHT22;8829;47.932;7.810;2022-09-09T15:19:05;20.20;99.90
17423;DHT22;8829;47.932;7.810;2022-09-09T15:21:34;20.30;99.90
17423;DHT22;8829;47.932;7.810;2022-09-09T15:24:03;20.30;99.90
17423;DHT22;8829;47.932;7.810;2022-09-09T15:26:30;20.30;99.90
17423;DHT22;8829;47.932;7.810;2022-09-09T15:28:57;20.10;99.90
17423;DHT22;8829;47.932;7.810;2022-09-09T15:31:27;20.10;99.90
17423;DHT22;8829;47.932;7.810;2022-09-09T15:33:55;19.90;99.90
17423;DHT22;8829;47.932;7.810;2022-09-09T15:36:27;19.80;99.90
17423;DHT22;8829;47.932;7.810;2022-09-09T15:38:55;19.70;99.90
17423;DHT22;8829;47.932;7.810;2022-09-09T15:41:23;19.50;99.90
17423;DHT22;8829;47.932;7.810;2022-09-09T15:43:51;19.40;99.90
17423;DHT22;8829;47.932;7.810;2022-09-09T15:46:26;19.40;99.90
17423;DHT22;8829;47.932;7.810;2022-09-09T15:48:54;19.30;99.90
17423;DHT22;8829;47.932;7.810;2022-09-09T15:51:22;19.40;99.90
17423;DHT22;8829;47.932;7.810;2022-09-09T15:53:53;19.30;99.90
17423;DHT22;8829;47.932;7.810;2022-09-09T15:56:20;19.40;99.90
17423;DHT22;8829;47.932;7.810;2022-09-09T15:58:48;19.30;99.90
17423;DHT22;8829;47.932;7.810;2022-09-09T16:01:15;19.10;99.90
17423;DHT22;8829;47.932;7.810;2022-09-09T16:03:42;19.00;99.90
17423;DHT22;8829;47.932;7.810;2022-09-09T16:06:12;18.80;99.90
17423;DHT22;8829;47.932;7.810;2022-09-09T16:08:40;18.70;99.90
17423;DHT22;8829;47.932;7.810;2022-09-09T16:11:07;18.60;99.90